createdAt,value
2019-06-07T00:03:09.248Z,9.98
2019-06-07T00:08:07.605Z,10.95
2019-06-07T00:12:54.250Z,10.93
2019-06-07T00:17:46.882Z,12.93
2019-06-07T00:22:39.536Z,8.33
2019-06-07T00:27:32.166Z,9.30
2019-06-07T00:32:24.585Z,8.55
2019-06-07T00:37:22.585Z,9.70
2019-06-07T00:42:16.655Z,8.48
2019-06-07T00:47:06.114Z,9.93
2019-06-07T00:51:58.558Z,9.30
2019-06-07T00:56:51.305Z,12.30
2019-06-07T01:01:44.123Z,8.20
2019-06-07T01:06:36.488Z,10.83
2019-06-07T01:11:28.841Z,9.55
2019-06-07T01:16:23.427Z,8.08
2019-06-07T01:21:19.791Z,9.38
2019-06-07T01:26:10.935Z,8.90
2019-06-07T01:31:03.107Z,10.38
2019-06-07T01:35:55.782Z,8.50
2019-06-07T01:40:48.441Z,10.15
2019-06-07T01:45:41.448Z,9.43
2019-06-07T01:50:34.040Z,8.98
2019-06-07T01:55:29.172Z,10.40
2019-06-07T02:00:22.119Z,9.83
2019-06-07T02:05:14.851Z,12.20
2019-06-07T02:10:08.595Z,8.67
2019-06-07T02:15:00.799Z,11.55
2019-06-07T02:19:53.917Z,9.80
2019-06-07T02:24:46.338Z,9.05
2019-06-07T02:29:40.280Z,11.55
2019-06-07T02:34:38.778Z,8.00
2019-06-07T02:39:28.813Z,10.30
2019-06-07T02:44:23.138Z,10.98
2019-06-07T02:49:14.737Z,11.75
2019-06-07T02:54:07.392Z,10.05
2019-06-07T02:59:00.098Z,10.53
2019-06-07T03:03:52.704Z,11.97
2019-06-07T03:08:48.588Z,8.90
2019-06-07T03:13:44.010Z,11.03
2019-06-07T03:23:57.045Z,9.57
2019-06-07T03:28:49.529Z,11.30
2019-06-07T03:33:45.331Z,10.57
2019-06-07T03:38:37.610Z,9.28
2019-06-07T03:43:32.677Z,13.30
2019-06-07T03:48:24.151Z,14.17
2019-06-07T03:53:16.557Z,9.50
2019-06-07T04:03:03.218Z,10.00
2019-06-07T04:07:55.536Z,9.83
2019-06-07T04:12:48.344Z,11.43
2019-06-07T04:18:00.447Z,13.08
2019-06-07T04:22:39.742Z,14.93
2019-06-07T04:27:30.632Z,13.08
2019-06-07T04:32:22.999Z,12.23
2019-06-07T04:37:16.639Z,12.60
2019-06-07T04:42:10.691Z,12.45
2019-06-07T04:47:04.567Z,10.10
2019-06-07T04:51:57.838Z,13.45
2019-06-07T04:56:50.252Z,10.90
2019-06-07T05:01:43.048Z,12.88
2019-06-07T05:06:37.366Z,12.28
2019-06-07T05:11:31.622Z,13.20
2019-06-07T05:16:24.042Z,15.75
2019-06-07T05:21:16.187Z,13.50
2019-06-07T05:26:08.425Z,11.03
2019-06-07T05:31:05.315Z,13.58
2019-06-07T05:35:55.287Z,14.93
2019-06-07T05:40:48.924Z,9.98
2019-06-07T05:45:44.916Z,7.95
2019-06-07T05:50:44.928Z,8.83
2019-06-07T05:55:32.646Z,9.13
2019-06-07T06:00:25.354Z,9.33
2019-06-07T06:05:33.268Z,7.60
2019-06-07T06:10:12.692Z,6.90
2019-06-07T06:15:06.871Z,8.70
2019-06-07T06:19:59.430Z,5.53
2019-06-07T06:25:29.847Z,5.50
2019-06-07T06:29:47.046Z,7.92
2019-06-07T06:34:44.252Z,4.40
2019-06-07T06:39:33.915Z,5.50
2019-06-07T06:44:26.421Z,4.92
2019-06-07T06:49:18.972Z,4.22
2019-06-07T06:54:11.618Z,4.50
2019-06-07T07:04:11.370Z,4.62
2019-06-07T07:08:53.556Z,3.58
2019-06-07T07:13:52.934Z,4.25
2019-06-07T07:18:41.677Z,3.55
2019-06-07T07:23:34.574Z,3.72
2019-06-07T07:28:27.370Z,3.52
2019-06-07T07:33:20.583Z,3.77
2019-06-07T07:38:13.576Z,3.60
2019-06-07T07:43:06.424Z,3.52
2019-06-07T07:48:14.779Z,3.08
2019-06-07T07:52:59.863Z,3.77
2019-06-07T07:57:49.446Z,2.65
2019-06-07T08:02:41.306Z,2.60
2019-06-07T08:07:34.005Z,4.60
2019-06-07T08:12:26.552Z,2.45
2019-06-07T08:17:19.062Z,5.08
2019-06-07T08:22:11.870Z,2.95
2019-06-07T08:27:25.290Z,4.72
2019-06-07T08:32:00.950Z,2.62
2019-06-07T08:36:54.846Z,5.05
2019-06-07T08:41:59.402Z,5.05
2019-06-07T08:46:41.439Z,3.35
2019-06-07T08:51:34.225Z,2.85
2019-06-07T08:56:26.667Z,4.03
2019-06-07T09:01:19.453Z,2.47
2019-06-07T09:07:00.996Z,2.25
2019-06-07T09:11:11.237Z,3.58
2019-06-07T09:16:08.111Z,7.08
2019-06-07T09:20:58.214Z,2.05
2019-06-07T09:26:02.603Z,2.50
2019-06-07T09:30:45.622Z,2.37
2019-06-07T09:35:39.076Z,1.85
2019-06-07T09:40:31.595Z,9.33
2019-06-07T09:45:24.285Z,2.20
2019-06-07T09:50:17.581Z,2.45
2019-06-07T09:55:22.906Z,4.53
2019-06-07T10:00:37.057Z,4.47
2019-06-07T10:05:01.672Z,2.83
2019-06-07T10:10:12.621Z,2.08
2019-06-07T10:14:48.121Z,3.30
2019-06-07T10:19:40.850Z,3.60
2019-06-07T10:24:33.786Z,3.83
2019-06-07T10:29:26.678Z,2.10
2019-06-07T10:34:19.286Z,2.95
2019-06-07T10:39:11.871Z,3.50
2019-06-07T10:44:05.524Z,2.72
2019-06-07T10:48:58.137Z,2.90
2019-06-07T10:53:50.894Z,2.12
2019-06-07T10:58:43.102Z,1.90
2019-06-07T11:03:35.635Z,1.60
2019-06-07T11:08:28.269Z,2.62
2019-06-07T11:13:20.686Z,3.65
2019-06-07T11:18:14.419Z,1.50
2019-06-07T11:23:08.247Z,1.60
2019-06-07T11:28:01.016Z,2.50
2019-06-07T11:32:55.438Z,2.05
2019-06-07T11:37:47.842Z,1.92
2019-06-07T11:42:40.658Z,1.70
2019-06-07T11:47:33.389Z,2.00
2019-06-07T11:52:25.901Z,2.10
2019-06-07T11:57:18.376Z,4.20
2019-06-07T12:02:11.578Z,1.50
2019-06-07T12:07:04.428Z,2.87
2019-06-07T12:11:56.978Z,2.30
2019-06-07T12:16:49.404Z,2.45
2019-06-07T12:21:42.338Z,1.57
2019-06-07T12:26:34.608Z,3.47
2019-06-07T12:31:27.248Z,1.72
2019-06-07T12:36:19.985Z,3.77
2019-06-07T12:41:12.451Z,3.10
2019-06-07T12:46:05.114Z,4.58
2019-06-07T12:50:57.533Z,3.92
2019-06-07T12:55:50.517Z,2.62
2019-06-07T13:00:43.334Z,2.70
2019-06-07T13:05:36.004Z,2.95
2019-06-07T13:10:28.698Z,3.12
2019-06-07T13:15:25.709Z,3.87
2019-06-07T13:20:18.219Z,3.47
2019-06-07T13:25:12.586Z,4.90
2019-06-07T13:30:10.380Z,2.52
2019-06-07T13:35:01.083Z,5.97
2019-06-07T13:39:53.709Z,3.02
2019-06-07T13:44:46.447Z,2.95
2019-06-07T13:49:39.005Z,7.10
2019-06-07T13:54:31.399Z,4.83
2019-06-07T13:59:24.528Z,4.97
2019-06-07T14:04:18.802Z,3.65
2019-06-07T14:09:11.670Z,4.05
2019-06-07T14:14:04.528Z,3.58
2019-06-07T14:18:56.930Z,3.52
2019-06-07T14:23:49.936Z,14.55
2019-06-07T14:28:42.666Z,7.00
2019-06-07T14:33:35.090Z,9.50
2019-06-07T14:38:29.455Z,4.10
2019-06-07T14:43:23.076Z,5.85
2019-06-07T14:48:15.105Z,7.72
2019-06-07T14:53:07.546Z,5.90
2019-06-07T14:57:59.962Z,3.00
2019-06-07T15:02:53.124Z,6.97
2019-06-07T15:07:45.738Z,7.28
2019-06-07T15:12:39.914Z,5.90
2019-06-07T15:17:33.454Z,5.25
2019-06-07T15:22:30.216Z,3.30
2019-06-07T15:27:23.079Z,5.85
2019-06-07T15:32:15.617Z,3.52
2019-06-07T15:37:08.043Z,6.60
2019-06-07T15:42:00.751Z,4.17
2019-06-07T15:46:54.549Z,4.67
2019-06-07T15:51:48.056Z,1.77
2019-06-07T15:56:41.208Z,2.72
2019-06-07T16:01:33.684Z,3.77
2019-06-07T16:06:26.441Z,1.12
2019-06-07T16:11:18.774Z,2.20
2019-06-07T16:16:11.412Z,1.07
2019-06-07T16:21:04.777Z,1.25
2019-06-07T16:25:57.443Z,1.17
2019-06-07T16:30:50.042Z,2.12
2019-06-07T16:35:43.200Z,1.12
2019-06-07T16:40:36.381Z,4.30
2019-06-07T16:45:29.312Z,1.45
2019-06-07T16:50:21.754Z,2.77
2019-06-07T16:55:15.579Z,1.40
2019-06-07T17:00:10.365Z,3.02
2019-06-07T17:05:03.162Z,1.47
2019-06-07T17:09:55.790Z,2.55
2019-06-07T17:14:48.731Z,3.17
2019-06-07T17:19:41.305Z,1.30
2019-06-07T17:24:33.685Z,1.05
2019-06-07T17:29:25.803Z,1.75
2019-06-07T17:34:18.663Z,1.30
2019-06-07T17:39:11.049Z,1.75
2019-06-07T17:44:03.670Z,2.10
2019-06-07T17:48:56.222Z,2.47
2019-06-07T17:53:49.964Z,1.35
2019-06-07T17:58:42.765Z,3.33
2019-06-07T18:03:35.383Z,3.00
2019-06-07T18:08:29.570Z,2.45
2019-06-07T18:13:22.012Z,3.10
2019-06-07T18:18:14.656Z,1.50
2019-06-07T18:23:07.203Z,3.52
2019-06-07T18:27:59.892Z,1.52
2019-06-07T18:32:52.981Z,1.42
2019-06-07T18:37:46.817Z,3.37
2019-06-07T18:42:40.003Z,1.77
2019-06-07T18:47:32.521Z,1.32
2019-06-07T18:52:27.013Z,5.12
2019-06-07T18:57:40.147Z,2.12
2019-06-07T19:02:32.429Z,2.35
2019-06-07T19:07:26.205Z,3.52
2019-06-07T19:12:18.372Z,3.33
2019-06-07T19:17:10.932Z,2.72
2019-06-07T19:22:03.318Z,1.87
2019-06-07T19:26:56.725Z,1.90
2019-06-07T19:31:48.954Z,1.00
2019-06-07T19:36:48.744Z,2.85
2019-06-07T19:41:35.459Z,1.32
2019-06-07T19:46:28.170Z,2.30
2019-06-07T19:51:20.772Z,1.50
2019-06-07T19:56:13.341Z,2.58
2019-06-07T20:01:06.048Z,4.20
2019-06-07T20:05:58.381Z,1.15
2019-06-07T20:10:51.232Z,2.45
2019-06-07T20:15:43.782Z,1.90
2019-06-07T20:20:36.691Z,1.85
2019-06-07T20:25:29.273Z,5.55
2019-06-07T20:30:22.426Z,2.45
2019-06-07T20:35:15.051Z,2.85
2019-06-07T20:40:22.860Z,2.67
2019-06-07T20:45:05.925Z,2.25
2019-06-07T20:49:58.220Z,2.33
2019-06-07T20:54:51.103Z,1.45
2019-06-07T20:59:43.634Z,3.40
2019-06-07T21:04:36.099Z,3.10
2019-06-07T21:09:28.834Z,2.27
2019-06-07T21:14:21.415Z,1.57
2019-06-07T21:19:13.582Z,1.95
2019-06-07T21:24:06.786Z,2.95
2019-06-07T21:28:59.183Z,3.42
2019-06-07T21:33:51.588Z,2.22
2019-06-07T21:38:43.897Z,2.33
2019-06-07T21:43:36.160Z,3.55
2019-06-07T21:48:28.672Z,3.87
2019-06-07T21:53:21.495Z,3.92
2019-06-07T21:58:13.960Z,2.95
2019-06-07T22:03:07.344Z,1.55
2019-06-07T22:08:00.123Z,2.45
2019-06-07T22:12:52.543Z,4.35
2019-06-07T22:17:45.448Z,4.28
2019-06-07T22:22:37.963Z,3.50
2019-06-07T22:27:30.535Z,4.53
2019-06-07T22:32:22.843Z,3.47
2019-06-07T22:37:17.330Z,4.90
2019-06-07T22:42:11.867Z,2.42
2019-06-07T22:47:03.443Z,3.20
2019-06-07T22:52:08.181Z,2.77
2019-06-07T22:57:01.033Z,2.62
2019-06-07T23:01:53.889Z,1.62
2019-06-07T23:06:45.869Z,1.95
2019-06-07T23:11:38.587Z,3.65
2019-06-07T23:16:31.336Z,2.27
2019-06-07T23:21:23.903Z,1.75
2019-06-07T23:26:16.298Z,2.80
2019-06-07T23:31:10.255Z,2.25
2019-06-07T23:36:02.884Z,3.17
2019-06-07T23:40:55.407Z,3.55
2019-06-07T23:45:48.328Z,2.12
2019-06-07T23:50:40.653Z,6.97
2019-06-07T23:55:32.582Z,2.75
